Time;durP1;ratioP1;P1;durP2;ratioP2;P2;SDS_P1;SDS_P2;PMS_P1;PMS_P2;Temp;Humidity;BMP_temperature;BMP_pressure;BME280_temperature;BME280_humidity;BME280_pressure;Samples;Min_cycle;Max_cycle;Signal;HPM_P1;HPM_P2
2021/05/10 00:02:20;;;;;;;7.82;1.60;;;20.90;53.00;;;19.11;51.12;99072.47;5051135;28;20052;-78
2021/05/10 00:04:59;;;;;;;11.13;1.65;;;20.90;53.00;;;19.09;51.27;99069.13;5051228;28;20122;-78
2021/05/10 00:07:34;;;;;;;4.90;1.50;;;20.90;53.30;;;19.06;51.68;99075.22;5051296;28;20041;-78
2021/05/10 00:10:13;;;;;;;7.80;1.45;;;20.90;53.40;;;19.05;51.47;99068.03;5051348;28;20045;-78
2021/05/10 00:12:46;;;;;;;3.92;1.60;;;20.80;53.30;;;19.05;51.51;99084.56;5050839;28;20048;-78
2021/05/10 00:15:27;;;;;;;5.90;1.90;;;20.80;53.20;;;19.01;51.88;99066.94;5051195;28;20048;-78
2021/05/10 00:18:05;;;;;;;4.43;1.50;;;20.80;53.60;;;19.02;52.35;99071.38;5051134;28;20037;-78
2021/05/10 00:20:46;;;;;;;7.47;1.48;;;20.80;53.90;;;18.98;52.64;99067.47;5051173;28;20040;-78
2021/05/10 00:23:28;;;;;;;3.55;1.63;;;20.80;54.40;;;18.97;52.60;99076.88;5050747;28;20052;-78
2021/05/10 00:26:03;;;;;;;3.88;1.42;;;20.80;54.20;;;18.98;53.05;99075.75;5050943;28;20547;-78
2021/05/10 00:28:41;;;;;;;3.70;1.50;;;20.80;54.80;;;18.98;52.66;99078.50;5050842;28;20045;-78
2021/05/10 00:31:19;;;;;;;7.93;1.67;;;20.80;54.50;;;18.99;52.39;99079.34;5050873;28;20033;-78
2021/05/10 00:33:55;;;;;;;4.20;1.80;;;20.70;54.40;;;18.97;53.23;99065.84;5050546;28;20037;-78
2021/05/10 00:36:28;;;;;;;8.18;1.60;;;20.70;54.80;;;18.95;53.81;99070.81;5049854;28;20045;-78
2021/05/10 00:39:07;;;;;;;5.80;1.73;;;20.70;55.40;;;18.94;53.98;99080.16;5050602;28;20045;-78
2021/05/10 00:41:43;;;;;;;4.75;1.42;;;20.70;55.80;;;18.91;54.39;99077.97;5050528;28;20099;-78
2021/05/10 00:44:18;;;;;;;5.07;1.70;;;20.70;55.90;;;18.89;54.32;99080.19;5050480;28;20041;-78
2021/05/10 00:46:52;;;;;;;6.25;1.85;;;20.70;56.00;;;18.89;53.96;99083.75;5050729;28;20052;-78
2021/05/10 00:49:27;;;;;;;4.47;1.60;;;20.70;55.90;;;18.89;53.93;99071.91;5050551;28;20128;-78
2021/05/10 00:52:11;;;;;;;7.80;1.65;;;20.60;55.70;;;18.89;54.51;99086.50;5032141;28;20550;-78
2021/05/10 00:54:46;;;;;;;5.93;1.58;;;20.60;56.20;;;18.89;53.94;99081.00;5050284;28;20045;-78
2021/05/10 00:57:26;;;;;;;5.53;1.50;;;20.60;55.80;;;18.88;54.05;99078.50;5049063;28;20440;-78
2021/05/10 01:00:01;;;;;;;5.95;1.60;;;20.60;55.90;;;18.85;56.38;99068.03;5050211;28;20048;-78
2021/05/10 01:02:37;;;;;;;7.72;1.77;;;20.60;57.20;;;18.85;57.79;99068.03;5050009;28;20505;-78
2021/05/10 01:05:14;;;;;;;4.65;1.80;;;20.60;58.30;;;18.83;58.45;99070.22;5050024;28;20045;-78
2021/05/10 01:07:51;;;;;;;5.65;1.58;;;20.60;58.70;;;18.83;58.20;99071.09;5050203;28;20041;-78
2021/05/10 01:10:30;;;;;;;5.85;1.77;;;20.60;58.90;;;18.81;58.70;99056.75;5050083;28;20111;-78
2021/05/10 01:13:06;;;;;;;5.88;1.50;;;20.60;59.90;;;18.80;59.04;99059.75;5049842;28;20049;-78
2021/05/10 01:15:43;;;;;;;8.52;1.92;;;20.60;60.20;;;18.80;58.72;99051.47;5050105;28;20102;-78
2021/05/10 01:18:19;;;;;;;4.85;1.77;;;20.60;59.80;;;18.81;57.86;99044.88;5050040;28;20040;-76
2021/05/10 01:20:59;;;;;;;6.38;1.67;;;20.50;59.50;;;18.77;58.47;99036.28;5049872;28;20045;-76
2021/05/10 01:23:38;;;;;;;7.65;1.92;;;20.50;59.80;;;18.81;56.54;99033.84;5049564;28;20091;-77
2021/05/10 01:26:16;;;;;;;3.83;1.67;;;20.50;58.30;;;18.80;56.25;99029.41;5039668;28;20107;-76
2021/05/10 01:28:51;;;;;;;2.97;1.30;;;20.50;58.20;;;18.82;54.79;99032.75;5012128;28;20545;-76
2021/05/10 01:31:24;;;;;;;6.78;1.70;;;20.50;57.60;;;18.92;54.17;99030.00;5029750;28;20068;-76
2021/05/10 01:34:02;;;;;;;6.82;1.50;;;20.50;56.50;;;18.87;54.18;99022.56;5029472;28;20049;-76
2021/05/10 01:36:40;;;;;;;5.07;1.50;;;20.50;56.50;;;18.85;54.15;99018.41;5029738;28;20061;-76
2021/05/10 01:39:13;;;;;;;7.00;1.67;;;20.50;56.60;;;18.85;53.64;99021.16;5029504;28;20069;-76
2021/05/10 01:41:48;;;;;;;7.20;1.73;;;20.50;55.90;;;18.84;53.80;99020.34;5029424;28;20050;-76
2021/05/10 01:44:23;;;;;;;3.47;1.50;;;20.50;55.90;;;18.88;53.22;99015.13;5011706;28;20056;-76
2021/05/10 01:47:01;;;;;;;7.53;1.88;;;20.50;55.60;;;18.90;52.52;99034.94;5029276;28;20050;-76
2021/05/10 01:49:39;;;;;;;4.75;1.48;;;20.60;55.00;;;18.95;52.03;99034.97;5029471;28;20425;-76
2021/05/10 01:52:15;;;;;;;4.50;1.67;;;20.60;54.80;;;18.98;52.21;99034.38;5029311;28;20049;-76
2021/05/10 01:54:58;;;;;;;3.13;1.30;;;20.60;54.60;;;19.00;51.73;99037.72;5029436;28;20092;-76
2021/05/10 01:57:34;;;;;;;3.10;1.30;;;20.60;54.20;;;19.01;51.57;99039.38;5029479;28;20053;-76
2021/05/10 02:00:13;;;;;;;11.48;1.80;;;20.60;54.10;;;19.03;51.52;99026.13;5029444;28;20561;-76
2021/05/10 02:02:49;;;;;;;4.95;1.50;;;20.70;53.90;;;19.06;51.67;99014.56;5029095;28;20494;-77
2021/05/10 02:05:21;;;;;;;4.82;1.50;;;20.70;53.80;;;19.08;51.44;99019.78;5029220;28;20053;-76
2021/05/10 02:08:00;;;;;;;3.97;1.45;;;20.70;53.80;;;19.04;51.58;99011.25;5011752;28;20053;-76
2021/05/10 02:10:39;;;;;;;7.80;1.50;;;20.70;53.70;;;19.06;51.28;99017.31;5011341;28;20504;-76
2021/05/10 02:13:17;;;;;;;6.35;1.65;;;20.70;53.70;;;19.03;51.60;99015.09;5028959;28;20430;-76
2021/05/10 02:15:57;;;;;;;4.70;1.50;;;20.70;53.90;;;19.01;51.86;99006.28;5029234;28;20107;-76
2021/05/10 02:18:37;;;;;;;2.72;1.10;;;20.70;53.80;;;19.02;51.89;99007.94;5029302;28;20050;-76
2021/05/10 02:21:15;;;;;;;5.20;1.58;;;20.70;54.20;;;19.01;52.18;98997.19;5029173;28;20072;-76
2021/05/10 02:23:50;;;;;;;6.03;1.42;;;20.70;54.50;;;19.00;51.63;99004.63;5010989;28;20501;-76
2021/05/10 02:26:26;;;;;;;6.45;2.00;;;20.70;53.80;;;18.99;51.60;98996.66;5029006;28;20042;-76
2021/05/10 02:29:04;;;;;;;4.82;1.67;;;20.70;54.00;;;18.98;51.20;98990.28;5029109;28;20087;-76
2021/05/10 02:31:40;;;;;;;4.13;1.67;;;20.70;53.60;;;19.00;51.38;98996.38;5029094;28;20045;-76
2021/05/10 02:34:16;;;;;;;6.70;2.05;;;20.70;53.70;;;18.98;53.84;98995.78;5029060;28;20041;-76
2021/05/10 02:36:53;;;;;;;5.63;1.40;;;20.60;55.60;;;18.93;54.53;98988.38;5029206;28;20050;-76
2021/05/10 02:39:31;;;;;;;3.78;1.52;;;20.70;56.40;;;18.91;55.62;98993.34;5028885;28;20049;-76
2021/05/10 02:42:08;;;;;;;5.32;1.75;;;20.70;57.10;;;18.89;55.34;98992.78;5028799;28;20041;-76
2021/05/10 02:44:43;;;;;;;4.15;1.40;;;20.70;57.10;;;18.87;54.90;98994.19;5028844;28;20041;-76
2021/05/10 02:47:18;;;;;;;5.57;1.52;;;20.60;56.50;;;18.88;53.86;98999.38;5029015;28;20037;-76
2021/05/10 02:49:56;;;;;;;4.50;1.60;;;20.60;55.80;;;18.89;53.88;99003.81;5047111;28;20521;-76
2021/05/10 02:52:28;;;;;;;5.00;1.58;;;20.60;55.80;;;18.88;53.92;98979.28;5048450;28;20592;-76
2021/05/10 02:55:04;;;;;;;4.65;1.40;;;20.60;56.00;;;18.84;53.69;98986.44;5047263;28;20099;-76
2021/05/10 02:57:44;;;;;;;5.45;1.52;;;20.60;55.70;;;18.83;53.93;98976.50;5048893;28;20041;-76
2021/05/10 03:00:26;;;;;;;4.82;1.70;;;20.60;55.90;;;18.82;53.53;98969.38;5052699;28;20148;-76
2021/05/10 03:03:02;;;;;;;5.70;1.38;;;20.60;55.70;;;18.81;52.74;98967.69;5052452;28;20492;-76
2021/05/10 03:05:41;;;;;;;5.78;1.83;;;20.50;55.20;;;18.84;52.14;98964.41;5052458;28;20051;-76
2021/05/10 03:08:20;;;;;;;5.38;1.70;;;20.50;54.60;;;18.82;52.25;98969.38;5052597;28;20041;-76
2021/05/10 03:10:58;;;;;;;4.07;1.65;;;20.50;54.70;;;18.81;52.57;98975.97;5052418;28;20052;-77
2021/05/10 03:13:40;;;;;;;5.05;1.30;;;20.50;55.10;;;18.77;52.57;98981.16;5052026;28;20037;-76
2021/05/10 03:16:16;;;;;;;7.10;1.50;;;20.50;55.00;;;18.76;52.94;98983.09;5052544;28;20048;-76
2021/05/10 03:18:51;;;;;;;4.72;1.60;;;20.50;55.20;;;18.74;53.27;98974.28;5052324;28;20091;-76
2021/05/10 03:21:20;;;;;;;2.80;1.50;;;20.50;55.30;;;18.71;53.01;98972.06;5052278;28;20091;-77
2021/05/10 03:23:55;;;;;;;6.55;1.50;;;20.50;55.30;;;18.72;53.18;98965.47;5038316;28;20115;-76
2021/05/10 03:26:27;;;;;;;3.33;1.27;;;20.40;55.20;;;18.74;52.77;98957.75;5032173;28;20052;-76
2021/05/10 03:29:07;;;;;;;4.43;1.60;;;20.40;54.90;;;18.73;52.78;98967.16;5032211;28;20081;-76
2021/05/10 03:31:46;;;;;;;3.95;1.35;;;20.40;55.00;;;18.74;52.32;98974.28;5032074;28;20466;-76
2021/05/10 03:34:18;;;;;;;5.70;1.65;;;20.40;54.90;;;18.71;52.28;98969.31;5032188;28;20049;-76
2021/05/10 03:36:53;;;;;;;5.45;1.73;;;20.40;54.60;;;18.70;52.05;98975.13;5032482;28;20473;-77
2021/05/10 03:39:28;;;;;;;3.00;1.50;;;20.40;54.70;;;18.68;52.92;98963.56;5032058;28;20054;-77
2021/05/10 03:42:04;;;;;;;4.45;1.75;;;20.40;55.00;;;18.68;52.30;98966.31;5013890;28;20095;-77
2021/05/10 03:44:37;;;;;;;11.65;1.88;;;20.40;54.60;;;18.65;52.89;98956.66;5032104;28;20045;-79
2021/05/10 03:47:15;;;;;;;7.35;1.90;;;20.30;55.20;;;18.63;52.87;98967.13;5032003;28;20843;-76
2021/05/10 03:49:53;;;;;;;4.15;1.80;;;20.30;55.30;;;18.63;52.69;98972.63;5031914;28;20647;-75
2021/05/10 03:52:25;;;;;;;5.18;1.65;;;20.30;55.00;;;18.64;52.34;98974.31;5031452;28;20053;-76
2021/05/10 03:55:03;;;;;;;6.15;1.60;;;20.30;55.00;;;18.62;52.75;98984.78;5031699;28;20049;-75
2021/05/10 03:57:41;;;;;;;3.70;1.50;;;20.30;55.20;;;18.61;52.73;98980.34;5031640;28;20037;-75
2021/05/10 04:00:20;;;;;;;5.90;1.75;;;20.30;55.10;;;18.62;52.44;98990.28;5031601;28;20053;-76
2021/05/10 04:03:00;;;;;;;5.72;1.50;;;20.30;54.90;;;18.62;52.09;98984.78;5031490;28;20056;-76
2021/05/10 04:05:57;;;;;;;5.93;1.85;;;20.20;54.70;;;18.64;52.46;98996.34;5031529;28;20061;-76
2021/05/10 04:13:34;;;;;;;3.45;1.40;;;20.30;54.70;;;18.72;51.74;99014.25;5031570;28;20045;-76
2021/05/10 04:14:28;;;;;;;3.65;1.50;;;20.30;54.20;;;18.73;52.22;99004.88;5031316;28;20057;-76
2021/05/10 04:17:04;;;;;;;8.38;1.52;;;20.30;54.70;;;18.72;51.42;99006.00;5031420;28;20563;-76
2021/05/10 04:19:42;;;;;;;5.93;1.50;;;20.30;54.00;;;18.72;51.78;98998.53;5031402;28;20045;-76
2021/05/10 04:22:18;;;;;;;5.60;1.50;;;20.40;54.30;;;18.78;51.09;99013.16;5031049;28;20041;-76
2021/05/10 04:24:52;;;;;;;5.35;1.50;;;20.40;53.90;;;18.80;52.95;99024.75;5031153;28;20563;-75
2021/05/10 04:27:26;;;;;;;7.32;1.77;;;20.40;55.00;;;18.78;53.98;99012.34;5031158;28;20041;-75
2021/05/10 04:29:59;;;;;;;7.75;1.65;;;20.40;56.10;;;18.77;54.22;99005.97;5031009;28;20053;-75
2021/05/10 04:32:35;;;;;;;4.32;1.45;;;20.40;56.30;;;18.76;53.97;99024.44;5030792;28;20046;-76
2021/05/10 04:35:14;;;;;;;5.05;1.75;;;20.40;56.30;;;18.76;53.61;99038.22;5030946;28;20110;-75
2021/05/10 04:37:51;;;;;;;7.25;1.77;;;20.40;56.10;;;18.81;53.39;99044.88;5030988;28;20056;-76
2021/05/10 04:40:21;;;;;;;5.57;1.35;;;20.40;56.20;;;18.81;53.77;99044.88;5030773;28;20787;-76
2021/05/10 04:42:59;;;;;;;4.75;1.58;;;20.40;56.10;;;18.80;53.95;99054.22;5030644;28;20045;-77
2021/05/10 04:45:37;;;;;;;6.68;1.70;;;20.50;56.20;;;18.80;53.83;99059.75;5030804;28;20405;-76
2021/05/10 04:48:14;;;;;;;7.18;1.90;;;20.40;56.10;;;18.78;53.46;99062.78;5030900;28;20410;-77
2021/05/10 04:50:52;;;;;;;5.32;1.60;;;20.50;55.80;;;18.79;53.85;99047.06;5030752;28;20401;-77
2021/05/10 04:53:27;;;;;;;5.70;1.58;;;20.50;56.10;;;18.75;56.66;99042.09;5030301;28;20103;-77
2021/05/10 04:56:03;;;;;;;4.97;1.90;;;20.40;57.70;;;18.75;56.46;99052.28;5030656;28;20088;-76
2021/05/10 04:58:39;;;;;;;6.90;1.73;;;20.40;57.90;;;18.72;57.38;99064.69;5012777;28;20468;-77
2021/05/10 05:01:11;;;;;;;4.80;1.92;;;20.40;58.50;;;18.69;58.05;99059.72;5030757;28;20045;-77
2021/05/10 05:03:50;;;;;;;6.30;1.80;;;20.40;59.10;;;18.68;57.32;99066.34;5030141;28;20050;-76
2021/05/10 05:06:28;;;;;;;5.95;1.67;;;20.40;58.70;;;18.67;57.64;99075.69;5030211;28;20037;-76
2021/05/10 05:09:06;;;;;;;3.97;1.60;;;20.40;58.90;;;18.68;58.42;99079.31;5021689;28;20053;-79
2021/05/10 05:11:44;;;;;;;4.93;1.73;;;20.40;59.70;;;18.66;58.30;99082.31;5048755;28;20740;-76
2021/05/10 05:14:22;;;;;;;6.50;1.80;;;20.40;59.80;;;18.67;57.26;99075.69;5049025;28;20040;-77
2021/05/10 05:17:00;;;;;;;4.65;1.70;;;20.40;59.10;;;18.67;57.49;99075.69;5034087;28;20163;-77
2021/05/10 05:19:40;;;;;;;4.90;1.90;;;20.40;59.50;;;18.66;57.80;99090.59;5023272;28;20102;-78
2021/05/10 05:22:18;;;;;;;6.93;2.08;;;20.30;59.50;;;18.67;57.50;99105.19;5024430;28;20044;-78
2021/05/10 05:24:58;;;;;;;4.18;1.75;;;20.30;59.30;;;18.65;57.70;99099.94;5029717;28;20179;-78
2021/05/10 05:27:36;;;;;;;7.68;2.03;;;20.30;59.40;;;18.66;57.24;99104.38;5030334;28;20292;-78
2021/05/10 05:30:16;;;;;;;5.25;1.77;;;20.30;59.20;;;18.67;57.93;99114.28;5029671;28;20211;-78
2021/05/10 05:32:54;;;;;;;9.35;2.00;;;20.30;59.30;;;18.65;57.70;99110.16;5029645;28;20501;-77
2021/05/10 05:35:30;;;;;;;6.22;1.90;;;20.30;59.70;;;18.66;57.71;99118.16;5030052;28;20041;-77
2021/05/10 05:38:10;;;;;;;4.88;2.05;;;20.30;59.50;;;18.67;57.07;99122.53;5027456;28;20429;-77
2021/05/10 05:40:51;;;;;;;5.00;1.73;;;20.30;59.40;;;18.66;57.37;99131.94;5006849;28;20057;-77
2021/05/10 05:43:25;;;;;;;5.85;1.95;;;20.30;59.40;;;18.68;57.43;99140.75;5029218;28;20120;-77
2021/05/10 05:46:11;;;;;;;6.93;1.80;;;20.30;59.30;;;18.68;57.67;99139.94;5046504;28;20513;-77
2021/05/10 05:48:49;;;;;;;5.78;1.63;;;20.30;59.60;;;18.67;57.35;99135.50;5049010;28;20461;-77
2021/05/10 05:51:29;;;;;;;8.45;1.85;;;20.30;59.30;;;18.68;58.53;99134.41;5040550;28;20048;-77
2021/05/10 05:54:07;;;;;;;7.40;1.70;;;20.30;59.80;;;18.66;58.25;99148.47;5039223;28;20037;-77
2021/05/10 05:56:45;;;;;;;6.65;1.45;;;20.30;60.10;;;18.65;58.04;99160.56;5029482;28;20056;-77
2021/05/10 05:59:14;;;;;;;5.53;2.15;;;20.30;60.00;;;18.66;58.36;99164.19;5029569;28;20080;-77
2021/05/10 06:01:53;;;;;;;6.60;1.80;;;20.30;60.10;;;18.63;58.25;99149.00;5028848;28;20493;-77
2021/05/10 06:04:28;;;;;;;4.50;1.80;;;20.30;60.20;;;18.63;57.64;99164.72;5029304;28;20680;-77
2021/05/10 06:07:01;;;;;;;7.40;2.40;;;20.30;59.90;;;18.63;58.40;99157.25;5029410;28;20048;-77
2021/05/10 06:09:36;;;;;;;5.78;2.20;;;20.30;60.30;;;18.61;59.29;99173.25;5029244;28;20043;-77
2021/05/10 06:12:13;;;;;;;4.30;1.50;;;20.30;61.10;;;18.59;59.18;99169.94;5011233;28;20453;-77
2021/05/10 06:14:51;;;;;;;7.07;2.08;;;20.20;61.50;;;18.59;58.95;99167.19;5029213;28;20037;-77
2021/05/10 06:17:28;;;;;;;6.63;1.90;;;20.30;61.20;;;18.58;60.37;99154.47;5029301;28;20057;-77
2021/05/10 06:20:05;;;;;;;5.50;1.88;;;20.20;62.10;;;18.56;60.17;99153.94;5029380;28;20613;-77
2021/05/10 06:22:46;;;;;;;7.15;1.90;;;20.20;62.00;;;18.54;60.49;99151.47;5028726;28;20042;-77
2021/05/10 06:25:21;;;;;;;8.00;1.80;;;20.20;62.00;;;18.51;61.71;99149.25;5011029;28;20052;-76
2021/05/10 06:27:59;;;;;;;6.03;1.65;;;20.20;63.50;;;18.50;62.54;99155.03;5028938;28;20042;-77
2021/05/10 06:30:34;;;;;;;6.22;2.13;;;20.20;64.00;;;18.49;62.84;99165.22;5029080;28;20069;-77
2021/05/10 06:33:10;;;;;;;8.85;1.92;;;20.20;64.30;;;18.49;62.65;99161.66;5029009;28;20049;-77
2021/05/10 06:35:48;;;;;;;6.32;1.90;;;20.20;64.20;;;18.49;61.92;99151.44;5015206;28;20068;-77
2021/05/10 06:38:27;;;;;;;6.97;2.03;;;20.20;63.80;;;18.51;62.79;99159.44;5033113;28;20049;-77
2021/05/10 06:41:05;;;;;;;7.45;2.28;;;20.20;64.20;;;18.51;62.96;99167.72;5032940;28;20418;-77
2021/05/10 06:43:43;;;;;;;6.03;1.65;;;20.20;64.50;;;18.51;63.80;99185.06;5048636;28;20075;-77
2021/05/10 06:46:23;;;;;;;6.45;1.77;;;20.20;65.00;;;18.50;63.10;99188.91;5052757;28;20036;-77
2021/05/10 06:49:01;;;;;;;6.85;1.90;;;20.20;64.80;;;18.50;62.55;99197.16;5034659;28;20049;-77
2021/05/10 06:51:36;;;;;;;6.70;1.80;;;20.20;64.50;;;18.52;62.22;99196.91;5051736;28;20489;-77
2021/05/10 06:54:17;;;;;;;9.32;2.10;;;20.30;63.90;;;18.53;62.56;99199.41;5052494;28;20060;-77
2021/05/10 06:56:57;;;;;;;5.85;2.28;;;20.20;64.40;;;18.58;63.15;99212.34;5034804;28;20060;-78
2021/05/10 06:59:29;;;;;;;6.43;1.92;;;20.30;65.00;;;18.68;62.78;99211.59;5052636;28;20563;-78
2021/05/10 07:02:07;;;;;;;6.10;1.80;;;20.30;64.90;;;18.79;61.80;99202.25;5034294;28;20517;-77
2021/05/10 07:07:17;;;;;;;7.53;1.75;;;20.40;62.80;;;18.84;61.24;99190.44;4978796;28;20046;-80
2021/05/10 07:10:00;;;;;;;4.70;1.92;;;20.50;63.40;;;18.89;60.64;99202.31;4973928;28;20101;-79
2021/05/10 07:12:35;;;;;;;9.20;2.20;;;20.50;62.80;;;19.02;61.96;99200.97;4973634;28;20050;-79
2021/05/10 07:15:11;;;;;;;5.03;1.80;;;20.60;63.80;;;19.14;61.28;99204.28;4973489;28;20042;-80
2021/05/10 07:17:50;;;;;;;6.55;1.98;;;20.70;63.90;;;19.29;60.55;99202.66;4972333;28;20411;-80
2021/05/10 07:20:22;;;;;;;7.18;1.63;;;20.80;63.20;;;19.36;60.52;99202.38;4973739;28;20593;-80
2021/05/10 07:23:00;;;;;;;5.55;1.90;;;20.90;63.00;;;19.40;61.45;99195.19;4973301;28;20507;-79
2021/05/10 07:25:42;;;;;;;8.35;2.13;;;20.90;63.70;;;19.46;59.04;99194.94;4986357;28;20042;-80
2021/05/10 07:28:20;;;;;;;6.00;1.95;;;21.00;61.60;;;19.54;59.60;99194.38;4991478;28;20050;-79
2021/05/10 07:30:59;;;;;;;3.83;1.80;;;21.00;62.00;;;19.58;59.66;99213.16;4992795;28;20043;-80
2021/05/10 07:33:35;;;;;;;8.98;1.75;;;21.10;62.20;;;19.71;59.76;99218.09;4982801;28;20098;-79
2021/05/10 07:36:10;;;;;;;5.20;1.73;;;21.20;61.90;;;19.78;59.19;99235.25;4991348;28;20130;-79
2021/05/10 07:38:48;;;;;;;4.07;1.60;;;21.30;61.70;;;19.84;57.58;99228.63;4943762;28;20053;-79
2021/05/10 07:41:27;;;;;;;4.95;1.60;;;21.40;60.10;;;19.87;58.21;99250.13;4992839;28;20446;-79
2021/05/10 07:44:05;;;;;;;5.45;1.70;;;21.40;60.00;;;19.92;60.60;99269.47;4988670;28;20042;-79
2021/05/10 07:46:40;;;;;;;5.97;1.80;;;21.50;61.50;;;20.00;59.72;99270.84;4986281;28;20042;-79
2021/05/10 07:49:18;;;;;;;7.15;2.15;;;21.60;61.40;;;20.16;59.55;99268.88;4985476;28;20068;-79
2021/05/10 07:51:56;;;;;;;6.47;1.67;;;21.70;60.90;;;20.27;57.91;99270.53;4992036;28;20047;-79
2021/05/10 07:54:31;;;;;;;3.85;1.60;;;21.80;60.00;;;20.21;56.99;99271.66;4970022;28;20050;-79
2021/05/10 07:57:14;;;;;;;8.90;1.52;;;21.80;58.70;;;20.10;55.69;99270.84;4992326;28;20038;-79
2021/05/10 07:59:53;;;;;;;4.25;1.50;;;21.80;57.70;;;20.02;55.35;99284.38;4985394;28;20549;-79
2021/05/10 08:02:28;;;;;;;3.30;1.50;;;21.70;57.10;;;19.97;56.37;99284.38;4980667;28;20064;-79
2021/05/10 08:05:06;;;;;;;2.95;1.38;;;21.70;58.30;;;19.89;56.71;99286.59;4990132;28;20050;-79
2021/05/10 08:07:44;;;;;;;4.80;1.35;;;21.60;58.30;;;19.80;56.05;99293.78;4992211;28;20046;-79
2021/05/10 08:10:22;;;;;;;4.97;1.23;;;21.60;58.00;;;19.71;55.46;99307.25;4991909;28;20112;-79
2021/05/10 08:13:01;;;;;;;4.30;1.40;;;21.50;57.40;;;19.63;55.26;99304.19;4987067;28;20047;-76
2021/05/10 08:15:39;;;;;;;5.95;1.23;;;21.40;57.10;;;19.56;55.63;99301.72;4988694;28;20539;-78
2021/05/10 08:18:17;;;;;;;5.88;1.20;;;21.30;57.70;;;19.50;55.98;99311.94;4988033;28;20057;-78
2021/05/10 08:20:57;;;;;;;3.63;1.25;;;21.30;57.80;;;19.44;56.32;99324.06;4972473;28;20043;-81
2021/05/10 08:23:35;;;;;;;3.13;1.20;;;21.20;58.10;;;19.40;55.53;99311.06;4972143;28;20042;-81
2021/05/10 08:26:13;;;;;;;5.10;1.25;;;21.20;57.60;;;19.37;56.93;99311.63;4987316;28;20046;-81
2021/05/10 08:28:51;;;;;;;6.18;1.35;;;21.10;58.50;;;19.33;57.49;99300.31;4990208;28;20058;-82
2021/05/10 08:31:27;;;;;;;5.55;1.10;;;21.10;58.90;;;19.30;56.69;99290.63;4976028;28;20081;-79
2021/05/10 08:34:04;;;;;;;3.60;1.05;;;21.00;58.10;;;19.27;57.41;99304.97;4984212;28;20057;-79
2021/05/10 08:36:42;;;;;;;2.60;1.00;;;21.00;58.90;;;19.28;57.05;99312.13;4991618;28;20046;-79
2021/05/10 08:39:18;;;;;;;4.22;1.00;;;21.00;58.90;;;19.29;57.67;99333.13;4990846;28;20094;-79
2021/05/10 08:41:57;;;;;;;3.55;0.75;;;21.00;59.20;;;19.31;58.23;99335.63;4991157;28;20038;-79
2021/05/10 08:44:36;;;;;;;2.92;1.00;;;21.00;59.60;;;19.37;57.95;99342.81;4991391;28;20491;-79
2021/05/10 08:47:14;;;;;;;12.70;1.00;;;21.00;59.90;;;19.40;59.06;99338.66;4990079;28;20065;-79
2021/05/10 08:49:49;;;;;;;3.00;0.90;;;21.00;60.80;;;19.38;58.17;99341.72;4991726;28;20470;-79
2021/05/10 08:52:27;;;;;;;7.68;1.20;;;21.10;60.00;;;19.33;57.69;99348.03;4991120;28;20046;-78
2021/05/10 08:55:06;;;;;;;4.07;1.05;;;21.00;59.40;;;19.29;57.29;99354.38;4991229;28;20042;-79
2021/05/10 08:57:44;;;;;;;5.82;1.08;;;21.00;58.90;;;19.23;56.81;99355.44;4990789;28;20042;-81
2021/05/10 09:00:26;;;;;;;3.72;1.00;;;20.90;58.60;;;19.20;58.03;99340.25;4991356;28;20050;-79
2021/05/10 09:03:16;;;;;;;4.38;1.15;;;20.90;59.50;;;19.16;57.98;99352.94;4987748;28;20043;-79
2021/05/10 09:06:01;;;;;;;3.97;0.90;;;20.90;59.10;;;19.14;57.75;99369.75;4991778;28;20085;-79
2021/05/10 09:08:46;;;;;;;6.30;1.00;;;20.90;59.40;;;19.11;57.65;99400.66;4989629;28;20182;-79
2021/05/10 09:11:23;;;;;;;2.58;0.82;;;20.80;59.30;;;19.08;58.59;99403.94;4990982;28;20065;-78
2021/05/10 09:14:04;;;;;;;3.72;1.00;;;20.80;60.00;;;19.05;58.53;99412.72;4990563;28;20050;-79
2021/05/10 09:17:01;;;;;;;6.25;1.00;;;20.80;59.90;;;19.02;58.81;99418.78;4990931;28;20034;-79
2021/05/10 09:19:57;;;;;;;3.08;1.00;;;20.80;60.20;;;18.99;57.34;99405.53;4989486;28;20050;-79
2021/05/10 09:22:48;;;;;;;3.70;0.80;;;20.70;59.70;;;18.97;57.63;99413.25;4999227;28;20056;-79
2021/05/10 09:25:34;;;;;;;3.70;0.90;;;20.70;59.70;;;18.95;58.35;99415.44;4999498;28;20035;-79
2021/05/10 09:28:18;;;;;;;5.80;1.08;;;20.60;60.10;;;18.95;58.98;99407.16;4990400;28;20047;-79
2021/05/10 09:30:58;;;;;;;3.72;1.15;;;20.60;60.40;;;18.95;59.56;99402.47;4990237;28;20046;-80
2021/05/10 09:33:33;;;;;;;3.03;1.10;;;20.60;61.20;;;19.00;59.68;99415.47;4989962;28;20137;-82
2021/05/10 09:36:10;;;;;;;3.33;0.93;;;20.70;61.60;;;19.04;59.16;99424.88;4990151;28;20109;-81
2021/05/10 09:38:50;;;;;;;2.90;0.80;;;20.70;61.40;;;19.09;59.81;99427.63;4997378;28;20045;-81
2021/05/10 09:41:28;;;;;;;4.23;0.90;;;20.80;62.00;;;19.12;60.25;99429.88;5009879;28;20525;-81
2021/05/10 09:44:08;;;;;;;3.90;1.08;;;20.80;62.00;;;19.12;59.62;99432.63;5009852;28;20049;-80
2021/05/10 09:46:48;;;;;;;5.15;0.90;;;20.80;61.10;;;19.11;59.85;99436.50;5004619;28;20045;-81
2021/05/10 09:49:44;;;;;;;3.05;0.80;;;20.80;61.90;;;19.12;59.60;99432.63;4990106;28;20046;-84
2021/05/10 09:52:32;;;;;;;5.50;0.70;;;20.80;61.30;;;19.13;58.75;99439.81;4989690;28;20494;-84
2021/05/10 09:55:09;;;;;;;2.65;0.75;;;20.80;60.60;;;19.13;57.97;99439.81;5006001;28;20057;-84
2021/05/10 09:58:01;;;;;;;5.72;0.82;;;20.80;59.90;;;19.13;57.56;99461.03;5009289;28;20433;-86
2021/05/10 10:00:36;;;;;;;2.42;0.90;;;20.80;59.60;;;19.11;57.59;99464.09;5009682;28;20046;-87
2021/05/10 10:03:36;;;;;;;4.38;0.90;;;20.80;59.30;;;19.13;57.51;99478.44;5008828;28;20456;-87
2021/05/10 10:06:17;;;;;;;2.92;0.68;;;20.80;59.30;;;19.13;57.84;99483.94;5002897;28;20050;-87
2021/05/10 10:08:53;;;;;;;;;;;20.80;59.50;;;19.11;56.84;99490.81;5009564;28;20054;-87
2021/05/10 10:11:37;;;;;;;4.65;0.70;;;20.80;58.70;;;19.13;57.49;99497.75;5009270;28;19925;-84
2021/05/10 10:14:17;;;;;;;3.45;0.93;;;20.80;59.40;;;19.14;56.85;99510.41;5002114;28;20038;-86
2021/05/10 10:16:56;;;;;;;4.40;0.70;;;20.80;59.20;;;19.16;56.96;99514.84;4993167;28;20050;-90
2021/05/10 10:19:40;;;;;;;2.28;0.68;;;20.80;58.70;;;19.17;57.01;99511.81;5009723;28;20042;-90
2021/05/10 10:22:24;;;;;;;2.45;0.70;;;20.80;58.80;;;19.13;56.12;99528.09;5009246;28;20544;-88
2021/05/10 10:25:05;;;;;;;3.35;0.70;;;20.80;58.10;;;19.10;55.94;99545.16;4989640;28;20069;-85
2021/05/10 10:27:44;;;;;;;6.60;1.00;;;20.80;57.80;;;19.08;55.60;99536.31;4989416;28;20038;-85
2021/05/10 10:30:21;;;;;;;2.03;0.60;;;20.70;57.90;;;19.07;56.44;99528.28;4987778;28;20096;-88
2021/05/10 10:32:59;;;;;;;3.55;0.82;;;20.70;58.60;;;19.07;57.17;99514.50;4988248;28;20047;-83
2021/05/10 10:35:37;;;;;;;4.55;0.77;;;20.70;58.70;;;19.05;56.10;99536.81;4972191;28;20454;-83
2021/05/10 10:38:27;;;;;;;2.83;1.02;;;20.70;58.80;;;19.04;56.79;99546.22;4989448;28;20096;-83
2021/05/10 10:41:27;;;;;;;2.15;0.85;;;20.70;58.70;;;19.02;57.50;99540.13;4989487;28;20050;-81
2021/05/10 10:44:41;;;;;;;1.98;0.63;;;20.70;59.30;;;19.01;57.15;99543.97;4995622;28;20053;-81
2021/05/10 10:47:36;;;;;;;2.72;0.70;;;20.70;58.90;;;19.00;56.71;99541.47;5008865;28;20433;-81
2021/05/10 10:50:15;;;;;;;2.30;0.60;;;20.70;58.80;;;18.99;56.99;99534.31;5008947;28;20073;-81
2021/05/10 10:53:02;;;;;;;4.68;0.70;;;20.70;58.80;;;18.99;57.07;99532.38;4996738;28;20038;-80
2021/05/10 10:55:40;;;;;;;4.00;1.00;;;20.70;58.80;;;18.97;55.78;99534.56;4989239;28;20053;-80
2021/05/10 10:58:27;;;;;;;2.30;0.80;;;20.70;57.90;;;18.94;55.25;99546.97;4989178;28;20062;-80
2021/05/10 11:01:23;;;;;;;3.95;0.88;;;20.60;57.60;;;18.94;56.49;99543.34;4988856;28;20046;-82
2021/05/10 11:04:21;;;;;;;4.53;1.17;;;20.60;58.30;;;18.97;57.64;99536.50;4988778;28;20039;-81
2021/05/10 11:07:00;;;;;;;4.72;0.98;;;20.60;59.50;;;19.01;58.72;99532.13;4989001;28;20045;-82
2021/05/10 11:09:56;;;;;;;2.92;0.85;;;20.70;60.40;;;19.04;57.13;99534.31;4987846;28;20096;-80
2021/05/10 11:12:56;;;;;;;3.13;1.08;;;20.60;59.20;;;19.02;56.78;99559.44;4980642;28;20077;-83
2021/05/10 11:15:54;;;;;;;3.08;1.10;;;20.70;58.80;;;18.99;57.09;99565.47;4984108;28;20054;-80